Time;durP1;ratioP1;P1;durP2;ratioP2;P2;SDS_P1;SDS_P2;PMS_P1;PMS_P2;Temp;Humidity;BMP_temperature;BMP_pressure;BME280_temperature;BME280_humidity;BME280_pressure;Samples;Min_cycle;Max_cycle;Signal;HPM_P1;HPM_P2
2022/09/12 00:01:19;;;;;;;10.20;9.40;;;14.80;1.00;;;;;;5023940;28;20600;-81
2022/09/12 00:03:51;;;;;;;10.03;9.30;;;14.80;99.90;;;;;;5017824;28;20486;-81
2022/09/12 00:06:21;;;;;;;9.07;8.40;;;14.90;99.00;;;;;;5040414;28;20458;-81
2022/09/12 00:08:50;;;;;;;9.80;9.10;;;14.80;1.00;;;;;;5023020;28;20967;-80
2022/09/12 00:11:19;;;;;;;9.30;8.60;;;14.80;1.00;;;;;;5022333;28;20459;-81
2022/09/12 00:13:47;;;;;;;9.10;8.50;;;14.80;99.90;;;;;;5028764;28;20460;-80
2022/09/12 00:16:17;;;;;;;9.87;9.13;;;14.90;99.90;;;;;;5025454;28;20522;-80
2022/09/12 00:18:46;;;;;;;9.57;8.93;;;14.80;1.00;;;;;;5025456;28;20477;-81
2022/09/12 00:21:17;;;;;;;8.60;7.90;;;14.80;43.00;;;;;;5026693;28;20494;-80
2022/09/12 00:23:47;;;;;;;8.83;8.33;;;14.70;1.00;;;;;;5026629;28;20464;-80
2022/09/12 00:26:16;;;;;;;8.60;8.10;;;14.60;99.90;;;;;;5026772;28;20460;-81
2022/09/12 00:28:45;;;;;;;9.40;8.60;;;14.60;1.00;;;;;;5025249;28;20974;-81
2022/09/12 00:31:15;;;;;;;9.20;8.60;;;14.70;99.90;;;;;;5024308;28;20656;-79
2022/09/12 00:33:44;;;;;;;8.77;8.07;;;14.70;99.90;;;;;;5024430;28;20547;-79
2022/09/12 00:36:15;;;;;;;8.60;8.00;;;14.50;99.90;;;;;;5024521;28;20453;-80
2022/09/12 00:38:43;;;;;;;8.40;7.90;;;14.50;95.00;;;;;;5025078;28;20522;-80
2022/09/12 00:41:16;;;;;;;9.67;8.87;;;14.50;1.00;;;;;;5023000;28;20983;-80
2022/09/12 00:43:46;;;;;;;8.50;8.00;;;14.50;99.90;;;;;;5027564;28;20511;-81
2022/09/12 00:46:24;;;;;;;9.27;8.67;;;14.60;33.50;;;;;;5022851;28;20484;-81
2022/09/12 00:48:56;;;;;;;9.37;8.77;;;14.60;79.00;;;;;;5019774;28;20554;-81
2022/09/12 00:51:26;;;;;;;9.50;8.90;;;14.70;1.00;;;;;;5028956;28;21046;-80
2022/09/12 00:53:58;;;;;;;9.40;8.80;;;14.80;99.90;;;;;;5030002;28;20745;-81
2022/09/12 00:56:27;;;;;;;10.67;9.90;;;14.60;99.90;;;;;;5028266;28;20491;-81
2022/09/12 00:58:59;;;;;;;9.67;8.90;;;14.40;1.00;;;;;;5031506;28;20905;-81
2022/09/12 01:01:28;;;;;;;9.77;9.07;;;14.50;1.00;;;;;;5025772;28;20481;-81
2022/09/12 01:04:00;;;;;;;9.80;9.10;;;14.40;99.90;;;;;;5037189;28;20472;-82
2022/09/12 01:06:35;;;;;;;9.10;8.30;;;14.30;1.00;;;;;;5027742;28;20470;-80
2022/09/12 01:09:04;;;;;;;9.07;8.40;;;14.40;1.00;;;;;;5034371;28;20443;-81
2022/09/12 01:11:36;;;;;;;9.87;8.90;;;14.50;99.90;;;;;;5042943;28;22821;-80
2022/09/12 01:14:05;;;;;;;9.10;8.50;;;14.40;1.00;;;;;;5029584;28;20871;-81
2022/09/12 01:16:35;;;;;;;9.10;8.40;;;14.40;1.00;;;;;;5030493;28;20502;-80
2022/09/12 01:19:20;;;;;;;9.57;8.90;;;14.40;33.70;;;;;;5031091;28;20469;-80
2022/09/12 01:22:03;;;;;;;9.43;8.83;;;14.30;1.00;;;;;;5027078;28;20503;-82
2022/09/12 01:24:50;;;;;;;8.97;8.20;;;14.20;99.90;;;;;;5032256;28;20474;-79
2022/09/12 01:27:42;;;;;;;8.97;8.27;;;14.10;99.90;;;;;;5027856;28;20569;-82
2022/09/12 01:30:41;;;;;;;9.23;8.57;;;14.10;99.90;;;;;;5030034;28;20503;-81
2022/09/12 01:33:34;;;;;;;9.20;8.60;;;14.10;99.90;;;;;;5030876;28;20914;-81
2022/09/12 01:36:32;;;;;;;9.23;8.63;;;14.00;1.00;;;;;;5033164;28;20463;-81
2022/09/12 01:39:03;;;;;;;8.87;8.37;;;13.90;1.00;;;;;;5021652;28;20483;-82
2022/09/12 01:41:40;;;;;;;8.50;7.90;;;14.00;99.90;;;;;;5028990;28;21023;-81
2022/09/12 01:44:18;;;;;;;8.73;8.13;;;14.00;41.90;;;;;;5029254;28;20462;-81
2022/09/12 01:46:54;;;;;;;8.83;8.23;;;14.10;99.90;;;;;;5028652;28;20490;-83
2022/09/12 01:49:25;;;;;;;9.03;8.43;;;14.00;98.20;;;;;;5034194;28;20454;-80
2022/09/12 01:51:59;;;;;;;8.80;8.20;;;14.00;99.90;;;;;;5028696;28;20563;-80
2022/09/12 01:54:35;;;;;;;8.50;7.93;;;14.10;99.90;;;;;;5032284;28;20471;-81
2022/09/12 01:57:11;;;;;;;10.27;9.47;;;14.10;99.90;;;;;;5030013;28;20524;-80
2022/09/12 01:59:43;;;;;;;9.00;8.33;;;14.20;1.00;;;;;;5033077;28;20583;-80
2022/09/12 02:02:16;;;;;;;9.50;8.80;;;13.90;1.00;;;;;;5029975;28;20565;-81
2022/09/12 02:04:51;;;;;;;9.17;8.47;;;13.90;99.90;;;;;;5023578;28;20459;-80
2022/09/12 02:07:22;;;;;;;8.90;8.30;;;13.80;1.00;;;;;;5029131;28;20457;-81
2022/09/12 02:09:54;;;;;;;8.43;7.93;;;13.80;99.90;;;;;;5027196;28;20504;-80
2022/09/12 02:12:28;;;;;;;8.90;8.30;;;13.70;99.90;;;;;;5034385;28;20522;-81
2022/09/12 02:15:01;;;;;;;8.23;7.73;;;13.60;1.00;;;;;;5040700;28;20451;-81
2022/09/12 02:17:35;;;;;;;8.50;7.90;;;13.70;99.90;;;;;;5032826;28;20486;-80
2022/09/12 02:20:08;;;;;;;8.50;7.93;;;13.70;31.70;;;;;;5026870;28;20559;-81
2022/09/12 02:22:49;;;;;;;8.17;7.77;;;13.60;99.90;;;;;;5032266;28;20480;-80
2022/09/12 02:25:20;;;;;;;8.80;8.30;;;13.70;99.90;;;;;;5030193;28;20885;-79
2022/09/12 02:27:50;;;;;;;8.57;7.80;;;13.70;1.00;;;;;;5026532;28;20567;-79
2022/09/12 02:30:19;;;;;;;9.83;9.03;;;13.70;1.00;;;;;;5034324;28;20462;-79
2022/09/12 02:32:58;;;;;;;8.30;7.70;;;13.80;99.90;;;;;;5031759;28;20519;-79
2022/09/12 02:35:34;;;;;;;8.87;8.37;;;13.70;1.00;;;;;;5031133;28;21328;-79
2022/09/12 02:38:07;;;;;;;8.20;7.70;;;13.70;1.00;;;;;;5033078;28;20566;-79
2022/09/12 02:40:35;;;;;;;8.80;8.30;;;13.50;97.80;;;;;;5028039;28;20538;-81
2022/09/12 02:43:05;;;;;;;9.23;8.43;;;13.70;1.00;;;;;;5032029;28;20552;-80
2022/09/12 02:45:35;;;;;;;8.40;7.80;;;13.60;99.90;;;;;;5035600;28;20466;-82
2022/09/12 02:48:09;;;;;;;8.27;7.67;;;13.70;1.00;;;;;;5030149;28;20464;-79
2022/09/12 02:50:39;;;;;;;7.90;7.40;;;13.70;1.00;;;;;;5032557;28;21226;-79
2022/09/12 02:53:09;;;;;;;12.63;8.53;;;13.60;99.90;;;;;;5028438;28;20585;-80
2022/09/12 02:55:40;;;;;;;8.57;8.07;;;13.50;1.00;;;;;;5024964;28;20539;-80
2022/09/12 02:58:11;;;;;;;9.10;8.40;;;13.50;1.00;;;;;;5028020;28;20478;-80
2022/09/12 03:00:48;;;;;;;8.70;8.20;;;13.60;99.90;;;;;;5027946;28;20567;-82
2022/09/12 03:03:35;;;;;;;8.93;8.30;;;13.60;1.00;;;;;;5031743;28;20569;-82
2022/09/12 03:06:17;;;;;;;8.50;7.90;;;13.60;89.00;;;;;;5026261;28;20467;-81
2022/09/12 03:08:57;;;;;;;8.10;7.63;;;13.60;1.00;;;;;;5028893;28;20533;-81
2022/09/12 03:11:41;;;;;;;8.20;7.67;;;13.50;33.10;;;;;;5029082;28;20452;-80
2022/09/12 03:14:22;;;;;;;8.80;8.00;;;13.40;41.70;;;;;;5024412;28;21157;-81
2022/09/12 03:16:58;;;;;;;9.23;8.60;;;13.40;1.00;;;;;;5019395;28;21388;-80
2022/09/12 03:19:36;;;;;;;8.80;8.20;;;13.40;1.00;;;;;;5027707;28;20480;-80
2022/09/12 03:22:13;;;;;;;8.80;8.30;;;13.40;99.90;;;;;;5025574;28;20487;-80
2022/09/12 03:24:51;;;;;;;8.30;7.80;;;13.40;1.00;;;;;;5030948;28;20456;-80
2022/09/12 03:27:24;;;;;;;8.73;8.13;;;13.40;99.90;;;;;;5032102;28;21021;-81
2022/09/12 03:29:55;;;;;;;8.00;7.60;;;13.40;1.00;;;;;;5028305;28;20834;-79
2022/09/12 03:32:41;;;;;;;8.97;8.43;;;13.40;1.00;;;;;;5026666;28;20482;-80
2022/09/12 03:35:12;;;;;;;8.30;7.80;;;13.40;1.00;;;;;;5023701;28;20483;-80
2022/09/12 03:37:40;;;;;;;8.20;7.80;;;13.30;99.90;;;;;;5030019;28;20485;-82
2022/09/12 03:40:12;;;;;;;8.17;7.70;;;13.30;99.90;;;;;;5031947;28;20538;-80
2022/09/12 03:42:40;;;;;;;9.43;8.82;;;13.30;99.90;;;;;;5026483;28;20561;-78
2022/09/12 03:45:09;;;;;;;8.83;8.23;;;13.10;41.40;;;;;;5024103;28;20217;-78
2022/09/12 03:47:39;;;;;;;8.80;8.20;;;13.20;99.90;;;;;;5024441;28;20496;-77
2022/09/12 03:50:08;;;;;;;8.33;7.83;;;13.30;1.00;;;;;;5030418;28;20470;-78
2022/09/12 03:52:37;;;;;;;8.80;8.30;;;13.20;1.00;;;;;;5026718;28;20475;-78
2022/09/12 03:55:06;;;;;;;9.13;8.57;;;13.20;99.90;;;;;;5029800;28;20600;-78
2022/09/12 03:57:34;;;;;;;9.20;8.60;;;13.20;1.00;;;;;;5022680;28;20483;-77
2022/09/12 04:00:03;;;;;;;9.27;8.77;;;13.20;34.30;;;;;;5024061;28;20877;-78
2022/09/12 04:02:31;;;;;;;8.23;7.80;;;13.20;99.90;;;;;;5021942;28;22418;-78
2022/09/12 04:04:59;;;;;;;8.80;8.13;;;13.30;99.90;;;;;;5024653;28;20467;-79
2022/09/12 04:07:28;;;;;;;9.17;8.57;;;13.20;99.90;;;;;;5023422;28;20470;-79
2022/09/12 04:09:57;;;;;;;7.97;7.57;;;13.20;99.90;;;;;;5022275;28;20581;-75
2022/09/12 04:12:25;;;;;;;7.90;7.37;;;13.10;99.90;;;;;;5026077;28;20473;-78
2022/09/12 04:14:53;;;;;;;8.77;8.13;;;13.10;1.00;;;;;;5025309;28;20462;-77
2022/09/12 04:17:21;;;;;;;7.87;7.33;;;13.10;71.60;;;;;;5027230;28;20447;-77
2022/09/12 04:19:49;;;;;;;7.80;7.30;;;13.10;99.90;;;;;;5026016;28;20554;-77
2022/09/12 04:22:17;;;;;;;7.47;7.07;;;13.20;1.00;;;;;;5028823;28;20517;-77
2022/09/12 04:24:45;;;;;;;8.93;8.23;;;13.20;1.00;;;;;;5025703;28;20553;-77
2022/09/12 04:27:15;;;;;;;7.93;7.23;;;13.00;32.20;;;;;;5023434;28;20491;-78
2022/09/12 04:29:43;;;;;;;8.00;7.50;;;13.10;99.90;;;;;;5030185;28;20451;-77
2022/09/12 04:32:11;;;;;;;7.70;7.20;;;13.00;99.90;;;;;;5031756;28;20472;-79
2022/09/12 04:34:39;;;;;;;8.13;7.63;;;13.00;99.90;;;;;;5029860;28;20521;-78
2022/09/12 04:37:07;;;;;;;8.10;7.60;;;12.90;99.90;;;;;;5031257;28;20583;-78
2022/09/12 04:39:35;;;;;;;7.83;7.33;;;12.90;1.00;;;;;;5030058;28;20545;-78
2022/09/12 04:42:03;;;;;;;8.10;7.50;;;13.00;1.00;;;;;;5028078;28;20610;-78
2022/09/12 04:44:33;;;;;;;9.20;8.47;;;12.90;7.70;;;;;;5025626;28;20466;-78
2022/09/12 04:47:02;;;;;;;8.27;7.77;;;12.90;41.50;;;;;;5023948;28;20451;-79
2022/09/12 04:49:30;;;;;;;8.83;8.23;;;12.90;1.00;;;;;;5031084;28;20454;-74
2022/09/12 04:51:58;;;;;;;7.73;7.23;;;13.30;99.90;;;;;;5027763;28;20470;-72
2022/09/12 04:54:26;;;;;;;7.27;6.87;;;13.70;1.00;;;;;;5028453;28;20454;-72
2022/09/12 04:56:54;;;;;;;8.40;7.80;;;13.80;99.90;;;;;;5030953;28;20553;-72
2022/09/12 04:59:23;;;;;;;8.43;7.93;;;13.80;99.90;;;;;;5027336;28;20462;-74
2022/09/12 05:01:53;;;;;;;8.27;7.77;;;13.80;1.00;;;;;;5026638;28;21012;-72
2022/09/12 05:04:21;;;;;;;8.40;7.80;;;13.70;99.90;;;;;;5025197;28;20462;-72
2022/09/12 05:06:49;;;;;;;9.03;8.37;;;13.50;91.50;;;;;;5030874;28;20485;-72
2022/09/12 05:09:17;;;;;;;8.03;7.53;;;13.60;99.90;;;;;;5021676;28;20452;-72
2022/09/12 05:11:46;;;;;;;9.33;8.73;;;13.80;99.90;;;;;;5024627;28;20470;-73
2022/09/12 05:14:32;;;;;;;8.70;8.10;;;13.70;99.90;;;;;;5028855;28;20459;-77
2022/09/12 05:17:02;;;;;;;8.30;7.80;;;13.70;21.80;;;;;;5016539;28;20469;-76
2022/09/12 05:19:31;;;;;;;8.70;8.20;;;13.20;99.90;;;;;;5027553;28;20513;-77
2022/09/12 05:21:59;;;;;;;7.87;7.37;;;13.10;99.90;;;;;;5018521;28;20916;-77
2022/09/12 05:24:27;;;;;;;8.77;8.10;;;13.10;1.00;;;;;;5025528;28;20463;-77
2022/09/12 05:26:55;;;;;;;8.77;8.17;;;13.10;1.00;;;;;;5030755;28;20553;-77
2022/09/12 05:29:24;;;;;;;20.43;9.40;;;13.00;1.00;;;;;;5033460;28;20555;-77
2022/09/12 05:31:52;;;;;;;8.70;8.20;;;13.00;99.90;;;;;;5026738;28;20507;-77
2022/09/12 05:34:22;;;;;;;9.00;8.43;;;13.00;1.00;;;;;;5030216;28;20566;-77
2022/09/12 05:36:50;;;;;;;9.50;8.90;;;13.00;99.90;;;;;;5028436;28;20468;-78
2022/09/12 05:39:18;;;;;;;10.00;9.30;;;12.90;1.00;;;;;;5019070;28;20973;-77
2022/09/12 05:41:46;;;;;;;9.30;8.60;;;12.90;99.90;;;;;;5030237;28;20498;-79
2022/09/12 05:44:15;;;;;;;9.80;9.10;;;13.10;99.90;;;;;;5030843;28;20477;-78
2022/09/12 05:46:45;;;;;;;9.40;8.80;;;13.20;1.00;;;;;;5030232;28;20873;-78
2022/09/12 05:49:14;;;;;;;9.30;8.70;;;13.20;1.00;;;;;;5033791;28;20504;-79
2022/09/12 05:51:45;;;;;;;10.33;9.37;;;13.10;19.70;;;;;;5033900;28;20475;-79
2022/09/12 05:54:15;;;;;;;10.50;9.70;;;13.10;99.90;;;;;;5032089;28;20456;-78
2022/09/12 05:56:44;;;;;;;11.13;10.13;;;13.00;99.90;;;;;;5030850;28;20463;-78
2022/09/12 05:59:14;;;;;;;10.30;9.60;;;13.10;99.90;;;;;;5029157;28;20563;-78
2022/09/12 06:01:43;;;;;;;10.23;9.63;;;13.20;55.80;;;;;;5030704;28;20585;-78
2022/09/12 06:04:12;;;;;;;10.07;9.40;;;13.30;99.90;;;;;;5033020;28;20463;-79
2022/09/12 06:06:42;;;;;;;12.07;11.00;;;13.30;99.90;;;;;;5033167;28;20495;-79
2022/09/12 06:09:12;;;;;;;11.23;10.53;;;13.60;99.90;;;;;;5031837;28;21251;-80
2022/09/12 06:11:41;;;;;;;11.47;10.57;;;13.60;99.90;;;;;;5025212;28;20507;-79
2022/09/12 06:14:11;;;;;;;11.73;10.83;;;13.60;1.00;;;;;;5030502;28;20549;-78
2022/09/12 06:16:40;;;;;;;12.87;11.77;;;13.80;1.00;;;;;;5028825;28;20459;-79
2022/09/12 06:19:14;;;;;;;12.00;11.20;;;13.80;72.90;;;;;;5030893;28;20466;-78
2022/09/12 06:21:42;;;;;;;12.10;11.30;;;13.90;97.20;;;;;;5030651;28;20570;-78
2022/09/12 06:24:12;;;;;;;12.77;11.77;;;14.10;1.00;;;;;;5030537;28;21053;-78
2022/09/12 06:26:40;;;;;;;12.80;12.00;;;14.20;1.00;;;;;;5030672;28;21122;-79
2022/09/12 06:29:10;;;;;;;13.33;12.37;;;14.30;1.00;;;;;;5030393;28;20482;-78
2022/09/12 06:31:40;;;;;;;13.57;12.47;;;14.40;1.00;;;;;;5029806;28;20542;-78
2022/09/12 06:34:10;;;;;;;13.47;12.37;;;14.50;1.00;;;;;;5019973;28;20550;-78
2022/09/12 06:36:40;;;;;;;14.07;12.97;;;14.50;1.00;;;;;;5021284;28;20467;-79
2022/09/12 06:39:13;;;;;;;11.93;11.20;;;14.70;1.00;;;;;;5022971;28;20531;-78
2022/09/12 06:41:41;;;;;;;14.23;13.20;;;14.60;99.90;;;;;;5026654;28;20499;-76
2022/09/12 06:44:14;;;;;;;13.90;12.90;;;14.70;1.00;;;;;;5028486;28;20480;-78
2022/09/12 06:46:43;;;;;;;14.33;13.23;;;14.70;1.00;;;;;;5030133;28;20810;-78
2022/09/12 06:49:11;;;;;;;14.67;13.47;;;14.70;1.00;;;;;;5030333;28;21339;-79
2022/09/12 06:51:40;;;;;;;14.27;13.17;;;14.80;1.00;;;;;;5029005;28;20472;-78
2022/09/12 06:54:09;;;;;;;14.77;13.77;;;14.90;1.00;;;;;;5029832;28;20495;-79
2022/09/12 06:56:39;;;;;;;13.57;12.70;;;14.90;1.00;;;;;;5029183;28;20488;-77
2022/09/12 06:59:07;;;;;;;14.27;13.17;;;15.00;99.90;;;;;;5028757;28;20487;-79
2022/09/12 07:01:35;;;;;;;14.83;13.83;;;15.10;7.20;;;;;;5028537;28;20502;-78
2022/09/12 07:04:04;;;;;;;13.20;12.20;;;15.20;1.00;;;;;;5028747;28;20457;-78
2022/09/12 07:06:37;;;;;;;15.93;14.70;;;15.30;99.90;;;;;;5027570;28;20462;-77
2022/09/12 07:09:07;;;;;;;14.57;13.67;;;15.50;99.90;;;;;;5029090;28;20580;-78
2022/09/12 07:11:38;;;;;;;13.70;12.90;;;15.60;1.00;;;;;;5032530;28;20537;-78
2022/09/12 07:14:09;;;;;;;15.63;14.33;;;15.60;1.00;;;;;;5027619;28;20493;-78
2022/09/12 07:16:37;;;;;;;14.83;13.53;;;15.60;99.90;;;;;;5028821;28;20873;-79
2022/09/12 07:19:07;;;;;;;15.37;14.10;;;15.60;27.70;;;;;;5029147;28;20461;-78
2022/09/12 07:21:38;;;;;;;13.80;12.87;;;15.70;99.90;;;;;;5028449;28;20484;-78
2022/09/12 07:24:08;;;;;;;13.87;12.90;;;15.70;1.00;;;;;;5028611;28;20461;-78
2022/09/12 07:26:37;;;;;;;12.00;11.30;;;16.00;99.90;;;;;;5027351;28;20453;-79
2022/09/12 07:29:08;;;;;;;12.70;11.90;;;16.10;1.00;;;;;;5022753;28;20463;-79
2022/09/12 07:31:56;;;;;;;12.27;11.47;;;16.20;99.90;;;;;;5023366;28;20483;-79
2022/09/12 07:34:24;;;;;;;12.33;11.73;;;16.30;99.90;;;;;;5027698;28;20519;-78
2022/09/12 07:36:52;;;;;;;12.03;11.33;;;16.50;99.90;;;;;;5028252;28;20900;-79
2022/09/12 07:39:20;;;;;;;12.67;12.07;;;16.60;1.00;;;;;;5028840;28;20457;-80
2022/09/12 07:41:49;;;;;;;12.20;11.30;;;16.70;99.90;;;;;;5026382;28;20523;-79
2022/09/12 07:44:18;;;;;;;11.90;11.40;;;16.80;99.90;;;;;;5027872;28;20450;-78
2022/09/12 07:46:46;;;;;;;11.00;10.40;;;17.00;1.00;;;;;;5026512;28;20463;-78
2022/09/12 07:49:15;;;;;;;12.77;11.83;;;17.30;99.90;;;;;;5027945;28;21050;-79
2022/09/12 07:51:43;;;;;;;11.87;11.27;;;17.70;1.00;;;;;;5028530;28;20475;-79
2022/09/12 07:54:12;;;;;;;11.00;10.60;;;17.90;99.90;;;;;;5026315;28;20443;-78
2022/09/12 07:56:40;;;;;;;10.33;9.70;;;18.20;1.00;;;;;;5025101;28;20894;-79
2022/09/12 07:59:09;;;;;;;9.40;9.10;;;18.30;1.00;;;;;;5028281;28;20460;-78
2022/09/12 08:01:40;;;;;;;9.40;9.00;;;18.60;1.00;;;;;;5027568;28;20536;-78
2022/09/12 08:04:08;;;;;;;9.00;8.70;;;18.70;1.00;;;;;;5029515;28;20548;-78
2022/09/12 08:06:36;;;;;;;9.73;9.27;;;18.70;1.00;;;;;;5027765;28;20557;-79
2022/09/12 08:09:06;;;;;;;9.03;8.80;;;19.00;1.00;;;;;;5027119;28;21083;-79
2022/09/12 08:11:35;;;;;;;7.97;7.70;;;19.10;1.00;;;;;;5026537;28;20480;-79
2022/09/12 08:14:04;;;;;;;8.60;8.40;;;19.10;99.90;;;;;;5031907;28;20552;-78
2022/09/12 08:16:34;;;;;;;8.00;7.70;;;19.10;99.90;;;;;;5023667;28;20462;-78
2022/09/12 08:19:04;;;;;;;8.00;7.80;;;19.10;1.00;;;;;;5023496;28;20947;-79
2022/09/12 08:21:33;;;;;;;7.50;7.30;;;19.30;99.90;;;;;;5022619;28;20472;-78
2022/09/12 08:24:03;;;;;;;7.20;6.90;;;19.40;99.90;;;;;;5021103;28;20840;-79
2022/09/12 08:26:33;;;;;;;6.90;6.70;;;19.40;99.90;;;;;;5026458;28;20463;-79
2022/09/12 08:29:02;;;;;;;7.43;7.13;;;19.40;99.90;;;;;;5022387;28;20488;-79
2022/09/12 08:31:35;;;;;;;7.80;7.40;;;19.50;99.90;;;;;;5020802;28;20498;-79
2022/09/12 08:34:05;;;;;;;8.03;7.73;;;19.50;99.90;;;;;;5023344;28;21061;-78
2022/09/12 08:36:34;;;;;;;8.17;7.83;;;19.50;99.90;;;;;;5032942;28;20461;-79
2022/09/12 08:39:05;;;;;;;7.57;7.27;;;19.60;99.90;;;;;;5023154;28;20451;-78
2022/09/12 08:41:36;;;;;;;7.53;7.23;;;19.60;99.90;;;;;;5038852;28;20484;-79
2022/09/12 08:44:35;;;;;;;7.37;7.17;;;19.70;99.90;;;;;;5018215;28;20484;-79
2022/09/12 08:47:21;;;;;;;6.93;6.63;;;19.90;99.90;;;;;;5018580;28;20535;-79
2022/09/12 08:50:02;;;;;;;7.30;7.00;;;19.90;99.90;;;;;;5009892;28;21346;-78
2022/09/12 08:52:36;;;;;;;7.17;6.97;;;20.00;99.90;;;;;;5025986;28;20479;-79
2022/09/12 08:55:12;;;;;;;7.20;7.00;;;20.00;99.90;;;;;;5024254;28;23149;-79
2022/09/12 08:57:40;;;;;;;7.57;7.27;;;20.00;99.90;;;;;;5024097;28;20464;-79
2022/09/12 09:00:14;;;;;;;7.10;6.90;;;20.00;99.90;;;;;;5021569;28;20527;-78
2022/09/12 09:03:25;;;;;;;6.80;6.60;;;20.10;99.90;;;;;;5019765;28;20477;-79
2022/09/12 09:06:02;;;;;;;5.93;5.83;;;20.10;99.90;;;;;;5015888;28;20446;-78
2022/09/12 09:08:50;;;;;;;6.53;6.27;;;20.20;99.90;;;;;;5023960;28;20463;-78
2022/09/12 09:11:30;;;;;;;6.47;6.17;;;20.30;99.90;;;;;;5019421;28;20464;-78
2022/09/12 09:16:56;;;;;;;6.27;6.07;;;20.30;99.90;;;;;;5023143;28;20458;-79
2022/09/12 09:19:31;;;;;;;5.80;5.60;;;20.40;99.90;;;;;;5025408;28;20882;-78
2022/09/12 09:22:04;;;;;;;5.83;5.63;;;20.50;99.90;;;;;;5023372;28;20479;-78
2022/09/12 09:24:37;;;;;;;5.87;5.57;;;20.50;99.90;;;;;;5025230;28;20488;-78
2022/09/12 09:27:13;;;;;;;5.43;5.23;;;20.70;99.90;;;;;;5024263;28;20518;-78
2022/09/12 09:30:02;;;;;;;5.60;5.40;;;21.00;99.90;;;;;;5025453;28;20448;-79
2022/09/12 09:32:35;;;;;;;5.30;5.20;;;20.90;99.90;;;;;;5023320;28;20964;-77
2022/09/12 09:35:12;;;;;;;5.63;5.33;;;20.90;99.90;;;;;;5041576;28;20805;-78
2022/09/12 09:37:44;;;;;;;4.90;4.60;;;20.90;99.90;;;;;;5031669;28;21265;-78
2022/09/12 09:40:22;;;;;;;5.10;4.90;;;21.10;99.90;;;;;;5042673;28;20469;-79
2022/09/12 09:42:56;;;;;;;5.43;5.13;;;21.00;99.90;;;;;;5041930;28;20492;-78
2022/09/12 09:45:27;;;;;;;4.70;4.60;;;21.00;99.90;;;;;;5033745;28;20974;-78
2022/09/12 09:48:00;;;;;;;4.93;4.83;;;21.10;99.90;;;;;;5027200;28;21082;-78
2022/09/12 09:50:29;;;;;;;4.50;4.40;;;21.10;99.90;;;;;;5032608;28;20507;-78
2022/09/12 09:53:01;;;;;;;4.73;4.53;;;21.10;99.90;;;;;;5032983;28;20542;-78
2022/09/12 09:55:37;;;;;;;4.47;4.37;;;21.20;99.90;;;;;;5031873;28;20488;-78
2022/09/12 09:58:05;;;;;;;4.60;4.30;;;21.10;99.90;;;;;;5031994;28;20869;-78
2022/09/12 10:00:35;;;;;;;4.70;4.50;;;21.30;99.90;;;;;;5030202;28;20458;-78
2022/09/12 10:03:28;;;;;;;5.00;4.67;;;21.40;99.90;;;;;;5031504;28;20580;-78
2022/09/12 10:06:00;;;;;;;4.63;4.40;;;21.40;99.90;;;;;;5028842;28;20460;-77
2022/09/12 10:08:31;;;;;;;4.47;4.27;;;21.60;99.90;;;;;;5015336;28;20992;-78
2022/09/12 10:11:02;;;;;;;4.10;4.00;;;21.40;99.90;;;;;;5027332;28;20445;-78
2022/09/12 10:13:39;;;;;;;3.73;3.63;;;21.50;99.90;;;;;;5031157;28;20483;-78
2022/09/12 10:16:19;;;;;;;3.67;3.57;;;21.50;99.90;;;;;;5031055;28;20480;-78
2022/09/12 10:18:48;;;;;;;3.80;3.70;;;21.60;99.90;;;;;;5034788;28;20444;-78
2022/09/12 10:21:26;;;;;;;4.07;3.97;;;21.90;99.90;;;;;;5021004;28;20463;-76
2022/09/12 10:24:02;;;;;;;3.80;3.60;;;21.90;99.90;;;;;;5032727;28;20527;-76
2022/09/12 10:26:37;;;;;;;3.30;3.20;;;21.90;99.90;;;;;;5030654;28;20503;-76
2022/09/12 10:29:14;;;;;;;2.77;2.67;;;22.00;99.90;;;;;;5021247;28;20521;-76
2022/09/12 10:31:47;;;;;;;3.20;3.00;;;21.90;99.90;;;;;;5030534;28;20504;-76
2022/09/12 10:34:29;;;;;;;3.13;3.03;;;22.10;99.90;;;;;;5031716;28;20459;-76
2022/09/12 10:37:05;;;;;;;2.70;2.60;;;22.10;99.90;;;;;;5029173;28;20476;-76
2022/09/12 10:39:37;;;;;;;2.73;2.63;;;22.20;99.90;;;;;;5027278;28;20444;-76
2022/09/12 10:42:06;;;;;;;2.50;2.40;;;22.20;99.90;;;;;;5025093;28;20530;-76
2022/09/12 10:44:35;;;;;;;2.77;2.67;;;22.30;99.90;;;;;;5029563;28;20527;-76
2022/09/12 10:47:23;;;;;;;2.50;2.40;;;22.40;99.90;;;;;;5029168;28;20462;-76
2022/09/12 10:49:51;;;;;;;3.60;3.40;;;22.40;99.90;;;;;;5025629;28;20494;-76
2022/09/12 10:52:23;;;;;;;3.20;3.00;;;22.50;99.90;;;;;;5028266;28;20532;-77
2022/09/12 10:54:53;;;;;;;2.70;2.60;;;22.50;99.90;;;;;;5026182;28;21046;-76
2022/09/12 10:57:50;;;;;;;2.43;2.33;;;22.60;99.90;;;;;;5025988;28;20521;-76
2022/09/12 11:00:26;;;;;;;2.40;2.30;;;22.50;99.90;;;;;;5026440;28;20455;-76
2022/09/12 11:03:14;;;;;;;2.40;2.30;;;22.40;99.90;;;;;;5025549;28;21009;-76
2022/09/12 11:05:56;;;;;;;2.50;2.40;;;22.50;99.90;;;;;;5039491;28;20497;-76
2022/09/12 11:08:58;;;;;;;2.30;2.20;;;22.60;99.90;;;;;;5028357;28;20469;-76
2022/09/12 11:11:56;;;;;;;2.20;2.10;;;22.60;99.90;;;;;;5021641;28;20550;-75
2022/09/12 11:14:34;;;;;;;2.70;2.60;;;22.60;99.90;;;;;;5028188;28;20458;-76
2022/09/12 11:17:12;;;;;;;2.73;2.50;;;22.70;99.90;;;;;;5027516;28;20893;-76
2022/09/12 11:20:02;;;;;;;2.63;2.53;;;22.80;99.90;;;;;;5032879;28;20546;-76
2022/09/12 11:22:42;;;;;;;2.40;2.30;;;22.90;99.90;;;;;;5027186;28;21105;-75
2022/09/12 11:25:30;;;;;;;1.93;1.90;;;22.70;99.90;;;;;;5031236;28;20514;-76
2022/09/12 11:28:16;;;;;;;2.53;2.43;;;22.70;99.90;;;;;;5036648;28;20485;-76
2022/09/12 11:30:58;;;;;;;2.30;2.20;;;22.80;99.90;;;;;;5035940;28;20466;-77
2022/09/12 11:33:41;;;;;;;2.20;2.10;;;22.90;99.90;;;;;;5028278;28;20554;-77
2022/09/12 11:36:23;;;;;;;2.30;2.20;;;22.80;99.90;;;;;;5023342;28;20642;-76
2022/09/12 11:38:55;;;;;;;2.47;2.27;;;22.80;99.90;;;;;;5027203;28;20469;-76
2022/09/12 11:41:28;;;;;;;2.17;2.07;;;22.70;99.90;;;;;;5027626;28;20462;-76
2022/09/12 11:44:02;;;;;;;2.10;2.00;;;22.70;99.90;;;;;;5028497;28;20583;-77
2022/09/12 11:46:36;;;;;;;2.40;2.30;;;22.80;99.90;;;;;;5028271;28;20439;-76
2022/09/12 11:49:12;;;;;;;2.00;1.90;;;22.90;99.90;;;;;;5026751;28;20964;-76
2022/09/12 11:51:46;;;;;;;2.00;1.90;;;23.00;99.90;;;;;;5024489;28;20484;-76
2022/09/12 11:54:21;;;;;;;2.83;2.63;;;22.90;99.90;;;;;;5027316;28;20534;-76
2022/09/12 11:56:55;;;;;;;2.50;2.30;;;23.10;99.90;;;;;;5033683;28;20505;-78
2022/09/12 11:59:33;;;;;;;1.90;1.80;;;23.10;99.90;;;;;;5032614;28;20459;-77
2022/09/12 12:02:04;;;;;;;2.10;1.90;;;23.00;99.90;;;;;;5023851;28;20582;-78
2022/09/12 12:04:39;;;;;;;2.03;1.93;;;23.00;99.90;;;;;;5024391;28;20963;-77
2022/09/12 12:07:10;;;;;;;2.10;2.00;;;23.00;99.90;;;;;;5022960;28;20546;-77
2022/09/12 12:09:46;;;;;;;2.20;2.10;;;23.10;99.90;;;;;;5028660;28;20554;-77
2022/09/12 12:12:20;;;;;;;2.00;1.90;;;23.10;99.90;;;;;;5028295;28;20475;-77
2022/09/12 12:14:53;;;;;;;1.90;1.80;;;23.00;99.90;;;;;;5018281;28;20487;-78
2022/09/12 12:17:23;;;;;;;2.20;2.10;;;23.20;99.90;;;;;;5029594;28;20563;-78
2022/09/12 12:19:58;;;;;;;1.83;1.83;;;23.30;99.90;;;;;;5025038;28;20838;-77
2022/09/12 12:22:33;;;;;;;2.03;1.93;;;23.20;99.90;;;;;;5036162;28;20480;-77
2022/09/12 12:25:23;;;;;;;2.00;1.90;;;23.00;99.90;;;;;;5017765;28;20516;-78
2022/09/12 12:28:00;;;;;;;2.10;2.00;;;23.10;99.90;;;;;;5025489;28;20546;-77
2022/09/12 12:31:01;;;;;;;2.30;2.20;;;23.10;99.90;;;;;;5019587;28;20968;-78
2022/09/12 12:33:54;;;;;;;2.20;2.10;;;23.10;99.90;;;;;;5023746;28;21298;-78
2022/09/12 12:36:49;;;;;;;2.73;2.63;;;23.10;99.90;;;;;;5022566;28;20548;-77
2022/09/12 12:40:03;;;;;;;2.30;2.20;;;23.20;99.90;;;;;;5008185;28;21038;-79
2022/09/12 12:43:03;;;;;;;2.20;2.10;;;23.30;99.90;;;;;;5020670;28;20476;-78
2022/09/12 12:46:02;;;;;;;1.80;1.80;;;23.30;99.90;;;;;;5018670;28;20480;-78
2022/09/12 12:48:55;;;;;;;1.90;1.90;;;23.30;99.90;;;;;;5028762;28;20464;-79
2022/09/12 12:51:36;;;;;;;2.27;2.17;;;23.30;99.90;;;;;;5038242;28;20464;-79
2022/09/12 12:54:26;;;;;;;2.20;2.10;;;23.40;99.90;;;;;;5020132;28;20596;-78
2022/09/12 12:57:06;;;;;;;2.03;1.93;;;23.40;99.90;;;;;;5023977;28;20452;-78
2022/09/12 12:59:34;;;;;;;2.20;2.10;;;23.40;99.90;;;;;;5030118;28;20483;-79
2022/09/12 13:02:04;;;;;;;1.90;1.80;;;23.40;99.90;;;;;;5031079;28;20910;-79
2022/09/12 13:04:33;;;;;;;1.87;1.77;;;23.50;99.90;;;;;;5023697;28;20472;-79
2022/09/12 13:07:05;;;;;;;1.90;1.80;;;23.50;99.90;;;;;;5031870;28;20459;-78
2022/09/12 13:09:43;;;;;;;2.27;2.17;;;23.50;99.90;;;;;;5023782;28;20456;-78
2022/09/12 13:12:18;;;;;;;1.80;1.67;;;23.50;99.90;;;;;;5030595;28;20579;-78
2022/09/12 13:15:24;;;;;;;1.70;1.60;;;23.60;99.90;;;;;;5020669;28;20555;-79
2022/09/12 13:17:59;;;;;;;2.03;1.93;;;23.60;99.90;;;;;;5026393;28;20456;-78
2022/09/12 13:20:31;;;;;;;1.67;1.57;;;23.50;99.90;;;;;;5028332;28;20478;-78
2022/09/12 13:22:59;;;;;;;1.83;1.73;;;23.50;99.90;;;;;;5024381;28;20515;-78